Observation data for Plainview on 07/18/2019      Previous  Date  Next       Current Mesonet Observations  Soil Data  Daily Summary Page  Observations in Plain Language
KPVS 180500Z 16011KT 28/16 A2998 RMK A01 T02780159  RH  049%=      5-min Rain = 0
KPVS 180505Z 16010G15KT 28/16 A2998 RMK A01 T02770158  RH  049%=      5-min Rain = 0
KPVS 180510Z 16011G17KT 28/16 A2998 RMK A01 T02770157  RH  049%=      5-min Rain = 0
KPVS 180515Z 16010G15KT 28/16 A2998 RMK A01 T02760157  RH  049%=      5-min Rain = 0
KPVS 180520Z 16010KT 28/16 A2998 RMK A01 T02750156  RH  049%=      5-min Rain = 0
KPVS 180525Z 16011G17KT 28/16 A2998 RMK A01 T02750156  RH  049%=      5-min Rain = 0
KPVS 180530Z 16010G16KT 27/16 A2997 RMK A01 T02740156  RH  049%=      5-min Rain = 0
KPVS 180535Z 16011G17KT 27/16 A2997 RMK A01 T02730155  RH  050%=      5-min Rain = 0
KPVS 180540Z 16010G15KT 27/16 A2997 RMK A01 T02720156  RH  050%=      5-min Rain = 0
KPVS 180545Z 16011G17KT 27/16 A2997 RMK A01 T02710155  RH  050%=      5-min Rain = 0
KPVS 180550Z 16009G14KT 27/16 A2997 RMK A01 T02710156  RH  050%=      5-min Rain = 0
KPVS 180555Z 15010KT 27/16 A2997 RMK A01 T02700156  RH  051%=      5-min Rain = 0
KPVS 180600Z 16010G15KT 27/16 A2997 RMK A01 T02690156  RH  051%=      5-min Rain = 0
KPVS 180605Z 16010KT 27/16 A2997 RMK A01 T02690156  RH  051%=      5-min Rain = 0
KPVS 180610Z 16010KT 27/16 A2997 RMK A01 T02680157  RH  052%=      5-min Rain = 0
KPVS 180615Z 16010KT 27/16 A2997 RMK A01 T02670157  RH  052%=      5-min Rain = 0
KPVS 180620Z 16010KT 27/16 A2997 RMK A01 T02650157  RH  053%=      5-min Rain = 0
KPVS 180625Z 16009KT 26/16 A2997 RMK A01 T02640158  RH  053%=      5-min Rain = 0
KPVS 180630Z 17009KT 26/16 A2998 RMK A01 T02630158  RH  054%=      5-min Rain = 0
KPVS 180635Z 17009KT 26/16 A2998 RMK A01 T02620159  RH  054%=      5-min Rain = 0
KPVS 180640Z 18008KT 26/16 A2998 RMK A01 T02600159  RH  055%=      5-min Rain = 0
KPVS 180645Z 19008KT 26/16 A2998 RMK A01 T02580160  RH  056%=      5-min Rain = 0
KPVS 180650Z 19007KT 26/16 A2998 RMK A01 T02560161  RH  057%=      5-min Rain = 0
KPVS 180655Z 19008KT 26/16 A2998 RMK A01 T02550162  RH  058%=      5-min Rain = 0
KPVS 180700Z 20008KT 25/16 A2998 RMK A01 T02540163  RH  058%=      5-min Rain = 0
KPVS 180705Z 20007KT 25/16 A2999 RMK A01 T02540163  RH  058%=      5-min Rain = 0
KPVS 180710Z 20008KT 25/16 A2998 RMK A01 T02530164  RH  059%=      5-min Rain = 0
KPVS 180715Z 20006KT 25/16 A2999 RMK A01 T02520164  RH  059%=      5-min Rain = 0
KPVS 180720Z 20006KT 25/16 A2999 RMK A01 T02500164  RH  060%=      5-min Rain = 0
KPVS 180725Z 20006KT 25/17 A2999 RMK A01 T02490165  RH  061%=      5-min Rain = 0
KPVS 180730Z 21005KT 25/17 A2999 RMK A01 T02470165  RH  062%=      5-min Rain = 0
KPVS 180735Z 21005KT 25/17 A2999 RMK A01 T02450166  RH  063%=      5-min Rain = 0
KPVS 180740Z 21005KT 24/17 A30 RMK A01 T02440166  RH  063%=      5-min Rain = 0
KPVS 180745Z 22005KT 24/17 A30 RMK A01 T02420167  RH  064%=      5-min Rain = 0
KPVS 180750Z 22005KT 24/17 A30 RMK A01 T02390166  RH  065%=      5-min Rain = 0
KPVS 180755Z 21006KT 24/17 A2999 RMK A01 T02370166  RH  066%=      5-min Rain = 0
KPVS 180800Z 20006KT 23/17 A2999 RMK A01 T02340166  RH  067%=      5-min Rain = 0
KPVS 180805Z 19006KT 23/17 A2999 RMK A01 T02320167  RH  068%=      5-min Rain = 0
KPVS 180810Z 19006KT 23/17 A2999 RMK A01 T02330167  RH  068%=      5-min Rain = 0
KPVS 180815Z 20006KT 23/17 A2999 RMK A01 T02340167  RH  068%=      5-min Rain = 0
KPVS 180820Z 21005KT 24/17 A30 RMK A01 T02350167  RH  067%=      5-min Rain = 0
KPVS 180825Z 22004KT 23/17 A30 RMK A01 T02340167  RH  068%=      5-min Rain = 0
KPVS 180830Z 20005KT 23/17 A2999 RMK A01 T02310167  RH  069%=      5-min Rain = 0
KPVS 180835Z 20005KT 23/17 A30 RMK A01 T02290168  RH  070%=      5-min Rain = 0
KPVS 180840Z 20006KT 23/17 A30 RMK A01 T02280168  RH  071%=      5-min Rain = 0
KPVS 180845Z 20006KT 23/17 A30 RMK A01 T02280169  RH  071%=      5-min Rain = 0
KPVS 180850Z 20005KT 23/17 A30 RMK A01 T02290169  RH  071%=      5-min Rain = 0
KPVS 180855Z 19005KT 23/17 A2999 RMK A01 T02270169  RH  072%=      5-min Rain = 0
KPVS 180900Z 19005KT 23/17 A2999 RMK A01 T02250169  RH  072%=      5-min Rain = 0
KPVS 180905Z 19006KT 22/17 A2999 RMK A01 T02240169  RH  073%=      5-min Rain = 0
KPVS 180910Z 18006KT 22/17 A2999 RMK A01 T02240170  RH  073%=      5-min Rain = 0
KPVS 180915Z 18007KT 22/17 A2999 RMK A01 T02240170  RH  073%=      5-min Rain = 0
KPVS 180920Z 18007KT 22/17 A2998 RMK A01 T02240170  RH  073%=      5-min Rain = 0
KPVS 180925Z 19007KT 23/17 A2998 RMK A01 T02250171  RH  073%=      5-min Rain = 0
KPVS 180930Z 19008KT 23/17 A2998 RMK A01 T02270171  RH  073%=      5-min Rain = 0
KPVS 180935Z 18008KT 23/17 A2998 RMK A01 T02280172  RH  072%=      5-min Rain = 0
KPVS 180940Z 18009KT 23/17 A2998 RMK A01 T02270172  RH  073%=      5-min Rain = 0
KPVS 180945Z 18008KT 23/17 A2998 RMK A01 T02280172  RH  073%=      5-min Rain = 0
KPVS 180950Z 18009KT 23/17 A2998 RMK A01 T02280172  RH  073%=      5-min Rain = 0
KPVS 180955Z 18009KT 23/17 A2998 RMK A01 T02280172  RH  072%=      5-min Rain = 0
KPVS 181000Z 18010KT 23/17 A2998 RMK A01 T02300172  RH  071%=      5-min Rain = 0
KPVS 181005Z 19009KT 23/17 A2998 RMK A01 T02310172  RH  071%=      5-min Rain = 0
KPVS 181010Z 18009KT 23/17 A2998 RMK A01 T02310172  RH  071%=      5-min Rain = 0
KPVS 181015Z 17009KT 23/17 A2998 RMK A01 T02320172  RH  071%=      5-min Rain = 0
KPVS 181020Z 18009KT 23/17 A2998 RMK A01 T02310172  RH  071%=      5-min Rain = 0
KPVS 181025Z 18009KT 23/17 A2999 RMK A01 T02330172  RH  070%=      5-min Rain = 0
KPVS 181030Z 18009KT 23/17 A2999 RMK A01 T02340171  RH  069%=      5-min Rain = 0
KPVS 181035Z 18009G17KT 24/17 A2999 RMK A01 T02360171  RH  068%=      5-min Rain = 0
KPVS 181040Z 17009KT 24/17 A2999 RMK A01 T02360170  RH  068%=      5-min Rain = 0
KPVS 181045Z 17010KT 24/17 A2999 RMK A01 T02360170  RH  068%=      5-min Rain = 0
KPVS 181050Z 17009KT 24/17 A2999 RMK A01 T02350170  RH  069%=      5-min Rain = 0
KPVS 181055Z 17008G13KT 23/17 A2999 RMK A01 T02330170  RH  069%=      5-min Rain = 0
KPVS 181100Z 18008KT 23/17 A2999 RMK A01 T02320170  RH  070%=      5-min Rain = 0
KPVS 181105Z 17008KT 23/17 A2999 RMK A01 T02310170  RH  070%=      5-min Rain = 0
KPVS 181110Z 17008KT 23/17 A30 RMK A01 T02300170  RH  070%=      5-min Rain = 0
KPVS 181115Z 17009KT 23/17 A30 RMK A01 T02300169  RH  070%=      5-min Rain = 0
KPVS 181120Z 17008KT 23/17 A30 RMK A01 T02300169  RH  070%=      5-min Rain = 0
KPVS 181125Z 17008KT 23/17 A30 RMK A01 T02300169  RH  070%=      5-min Rain = 0
KPVS 181130Z 17009G14KT 23/17 A30 RMK A01 T02310168  RH  070%=      5-min Rain = 0
KPVS 181135Z 17010KT 23/17 A30 RMK A01 T02300168  RH  070%=      5-min Rain = 0
KPVS 181140Z 17009KT 23/17 A30 RMK A01 T02300168  RH  070%=      5-min Rain = 0
KPVS 181145Z 17010KT 23/17 A2999 RMK A01 T02290168  RH  070%=      5-min Rain = 0
KPVS 181200Z 18010G15KT 23/17 A2999 RMK A01 T02280168  RH  071%=      5-min Rain = 0
KPVS 181205Z 17010KT 23/17 A2999 RMK A01 T02290168  RH  070%=      5-min Rain = 0
KPVS 181210Z 18009KT 23/17 A30 RMK A01 T02290168  RH  070%=      5-min Rain = 0
KPVS 181215Z 17010KT 23/17 A30 RMK A01 T02290169  RH  070%=      5-min Rain = 0
KPVS 181220Z 18010KT 23/17 A30 RMK A01 T02300169  RH  070%=      5-min Rain = 0
KPVS 181225Z 18010KT 23/17 A30 RMK A01 T02310169  RH  070%=      5-min Rain = 0
KPVS 181230Z 17011KT 23/17 A30 RMK A01 T02320170  RH  070%=      5-min Rain = 0
KPVS 181235Z 17011G16KT 23/17 A2999 RMK A01 T02330170  RH  069%=      5-min Rain = 0
KPVS 181240Z 17011G18KT 23/17 A2999 RMK A01 T02340171  RH  069%=      5-min Rain = 0
KPVS 181245Z 18013G19KT 24/17 A2999 RMK A01 T02360171  RH  068%=      5-min Rain = 0
KPVS 181250Z 18011G16KT 24/17 A2999 RMK A01 T02380171  RH  068%=      5-min Rain = 0
KPVS 181255Z 18011KT 24/17 A2999 RMK A01 T02390172  RH  068%=      5-min Rain = 0
KPVS 181300Z 18012KT 24/17 A2999 RMK A01 T02410172  RH  067%=      5-min Rain = 0
KPVS 181305Z 18011G16KT 24/17 A2999 RMK A01 T02420172  RH  067%=      5-min Rain = 0
KPVS 181310Z 18012G21KT 24/17 A2999 RMK A01 T02440173  RH  066%=      5-min Rain = 0
KPVS 181315Z 18012G17KT 25/17 A2999 RMK A01 T02450173  RH  065%=      5-min Rain = 0
KPVS 181320Z 18011G16KT 25/17 A2999 RMK A01 T02470173  RH  065%=      5-min Rain = 0
KPVS 181325Z 18011G18KT 25/17 A2999 RMK A01 T02490173  RH  064%=      5-min Rain = 0
KPVS 181330Z 18013G19KT 25/17 A2998 RMK A01 T02510173  RH  064%=      5-min Rain = 0
KPVS 181335Z 18012G18KT 25/17 A2998 RMK A01 T02520174  RH  063%=      5-min Rain = 0
KPVS 181340Z 19013G18KT 25/17 A2998 RMK A01 T02530174  RH  063%=      5-min Rain = 0
KPVS 181345Z 19012G18KT 26/17 A2998 RMK A01 T02550174  RH  062%=      5-min Rain = 0
KPVS 181350Z 19012G17KT 26/18 A2998 RMK A01 T02580175  RH  061%=      5-min Rain = 0
KPVS 181355Z 19014G19KT 26/17 A2998 RMK A01 T02590174  RH  061%=      5-min Rain = 0
KPVS 181400Z 19015G20KT 26/17 A2998 RMK A01 T02610173  RH  060%=      5-min Rain = 0
KPVS 181405Z 19013G19KT 26/17 A2998 RMK A01 T02640173  RH  059%=      5-min Rain = 0
KPVS 181410Z 19014G21KT 27/17 A2998 RMK A01 T02670173  RH  058%=      5-min Rain = 0
KPVS 181415Z 20012G18KT 27/17 A2999 RMK A01 T02700172  RH  056%=      5-min Rain = 0
KPVS 181420Z 19014G21KT 27/17 A2999 RMK A01 T02720171  RH  055%=      5-min Rain = 0
KPVS 181425Z 19015G20KT 27/17 A2999 RMK A01 T02730170  RH  055%=      5-min Rain = 0
KPVS 181430Z 19015G21KT 28/17 A2999 RMK A01 T02750170  RH  054%=      5-min Rain = 0
KPVS 181435Z 20015G22KT 28/17 A2999 RMK A01 T02750169  RH  053%=      5-min Rain = 0
KPVS 181440Z 19015G22KT 28/17 A2999 RMK A01 T02770167  RH  052%=      5-min Rain = 0
KPVS 181445Z 20014G23KT 28/17 A2999 RMK A01 T02800168  RH  052%=      5-min Rain = 0
KPVS 181450Z 20016G22KT 28/17 A2998 RMK A01 T02800167  RH  051%=      5-min Rain = 0
KPVS 181455Z 20014G20KT 28/17 A2998 RMK A01 T02820169  RH  051%=      5-min Rain = 0
KPVS 181500Z 21016G22KT 28/17 A2998 RMK A01 T02840168  RH  051%=      5-min Rain = 0
KPVS 181505Z 20015G21KT 29/17 A2998 RMK A01 T02850169  RH  051%=      5-min Rain = 0
KPVS 181510Z 21018G24KT 29/17 A2997 RMK A01 T02860168  RH  050%=      5-min Rain = 0
KPVS 181515Z 21017G22KT 29/17 A2997 RMK A01 T02860168  RH  050%=      5-min Rain = 0
KPVS 181520Z 21016G24KT 29/17 A2997 RMK A01 T02890169  RH  050%=      5-min Rain = 0
KPVS 181525Z 20017G23KT 29/17 A2997 RMK A01 T02900169  RH  049%=      5-min Rain = 0
KPVS 181530Z 21016G23KT 29/17 A2997 RMK A01 T02900169  RH  049%=      5-min Rain = 0
KPVS 181535Z 21017G23KT 29/17 A2997 RMK A01 T02930169  RH  048%=      5-min Rain = 0
KPVS 181540Z 20013G21KT 29/17 A2997 RMK A01 T02940169  RH  048%=      5-min Rain = 0
KPVS 181545Z 20016G22KT 30/17 A2997 RMK A01 T02980168  RH  047%=      5-min Rain = 0
KPVS 181550Z 20014G19KT 30/17 A2997 RMK A01 T02980169  RH  047%=      5-min Rain = 0
KPVS 181555Z 20015G21KT 30/17 A2997 RMK A01 T02990168  RH  046%=      5-min Rain = 0
KPVS 181600Z 19014G19KT 30/17 A2997 RMK A01 T03030169  RH  045%=      5-min Rain = 0
KPVS 181605Z 21013G18KT 31/17 A2997 RMK A01 T03050168  RH  045%=      5-min Rain = 0
KPVS 181610Z 20013G21KT 31/17 A2997 RMK A01 T03070169  RH  044%=      5-min Rain = 0
KPVS 181615Z 19013G19KT 31/17 A2997 RMK A01 T03100170  RH  044%=      5-min Rain = 0
KPVS 181620Z 20014KT 31/17 A2997 RMK A01 T03110168  RH  043%=      5-min Rain = 0
KPVS 181625Z 20012G18KT 31/17 A2997 RMK A01 T03130170  RH  044%=      5-min Rain = 0
KPVS 181630Z 19013G20KT 31/17 A2997 RMK A01 T03140169  RH  043%=      5-min Rain = 0
KPVS 181635Z 19013G19KT 31/17 A2997 RMK A01 T03140170  RH  043%=      5-min Rain = 0
KPVS 181640Z 19015G22KT 32/17 A2997 RMK A01 T03170167  RH  042%=      5-min Rain = 0
KPVS 181645Z 20015G20KT 32/17 A2997 RMK A01 T03170166  RH  041%=      5-min Rain = 0
KPVS 181650Z 20013G20KT 32/16 A2997 RMK A01 T03180163  RH  040%=      5-min Rain = 0
KPVS 181655Z 20014G19KT 32/16 A2997 RMK A01 T03210164  RH  040%=      5-min Rain = 0
KPVS 181700Z 20014G19KT 32/17 A2997 RMK A01 T03230165  RH  040%=      5-min Rain = 0
KPVS 181705Z 20012G18KT 33/17 A2997 RMK A01 T03250167  RH  040%=      5-min Rain = 0
KPVS 181710Z 21014G20KT 32/16 A2997 RMK A01 T03240159  RH  038%=      5-min Rain = 0
KPVS 181715Z 21015G20KT 33/16 A2997 RMK A01 T03250160  RH  038%=      5-min Rain = 0
KPVS 181720Z 20011G17KT 33/16 A2997 RMK A01 T03270164  RH  039%=      5-min Rain = 0
KPVS 181725Z 19014G20KT 33/16 A2997 RMK A01 T03290162  RH  038%=      5-min Rain = 0
KPVS 181730Z 19014KT 33/16 A2997 RMK A01 T03310163  RH  038%=      5-min Rain = 0
KPVS 181735Z 20014G20KT 33/16 A2996 RMK A01 T03300160  RH  037%=      5-min Rain = 0
KPVS 181740Z 20013G20KT 33/16 A2996 RMK A01 T03300162  RH  038%=      5-min Rain = 0
KPVS 181745Z 20012G17KT 33/16 A2996 RMK A01 T03340159  RH  036%=      5-min Rain = 0
KPVS 181750Z 21012G20KT 34/16 A2996 RMK A01 T03370159  RH  035%=      5-min Rain = 0
KPVS 181755Z 22013G20KT 34/16 A2996 RMK A01 T03350159  RH  036%=      5-min Rain = 0
KPVS 181800Z 20014G20KT 34/16 A2996 RMK A01 T03400158  RH  034%=      5-min Rain = 0
KPVS 181805Z 21012G19KT 34/16 A2996 RMK A01 T03390157  RH  034%=      5-min Rain = 0
KPVS 181810Z 20012G18KT 34/16 A2995 RMK A01 T03390157  RH  034%=      5-min Rain = 0
KPVS 181815Z 19012G18KT 34/16 A2995 RMK A01 T03410159  RH  035%=      5-min Rain = 0
KPVS 181820Z 19013G20KT 34/16 A2995 RMK A01 T03410160  RH  035%=      5-min Rain = 0
KPVS 181825Z 19015G20KT 34/16 A2995 RMK A01 T03430158  RH  034%=      5-min Rain = 0
KPVS 181830Z 19011G16KT 35/16 A2994 RMK A01 T03450155  RH  033%=      5-min Rain = 0
KPVS 181835Z 19013G20KT 35/16 A2994 RMK A01 T03480156  RH  033%=      5-min Rain = 0
KPVS 181840Z 19013G18KT 35/15 A2994 RMK A01 T03470153  RH  032%=      5-min Rain = 0
KPVS 181845Z 18014G20KT 35/15 A2994 RMK A01 T03480153  RH  032%=      5-min Rain = 0
KPVS 181850Z 18015G22KT 35/15 A2993 RMK A01 T03510153  RH  031%=      5-min Rain = 0
KPVS 181855Z 19015G22KT 35/15 A2993 RMK A01 T03490151  RH  031%=      5-min Rain = 0
KPVS 181900Z 20015G22KT 35/15 A2993 RMK A01 T03510148  RH  031%=      5-min Rain = 0
KPVS 181905Z 19014G21KT 35/15 A2993 RMK A01 T03530151  RH  031%=      5-min Rain = 0
KPVS 181910Z 19014G21KT 35/15 A2993 RMK A01 T03520151  RH  031%=      5-min Rain = 0
KPVS 181915Z 19014G19KT 36/15 A2993 RMK A01 T03550151  RH  030%=      5-min Rain = 0
KPVS 181920Z 18013G21KT 36/15 A2992 RMK A01 T03570153  RH  030%=      5-min Rain = 0
KPVS 181925Z 20014G22KT 36/15 A2992 RMK A01 T03560147  RH  029%=      5-min Rain = 0
KPVS 181930Z 20014G22KT 36/15 A2992 RMK A01 T03580148  RH  029%=      5-min Rain = 0
KPVS 181935Z 19013G21KT 36/15 A2992 RMK A01 T03580147  RH  029%=      5-min Rain = 0
KPVS 181940Z 19014G19KT 36/15 A2992 RMK A01 T03600145  RH  028%=      5-min Rain = 0
KPVS 181945Z 19014G19KT 36/15 A2992 RMK A01 T03610148  RH  029%=      5-min Rain = 0
KPVS 181950Z 18015G24KT 37/15 A2992 RMK A01 T03650147  RH  028%=      5-min Rain = 0
KPVS 181955Z 19012G19KT 37/14 A2992 RMK A01 T03670144  RH  027%=      5-min Rain = 0
KPVS 182000Z 19014G22KT 37/15 A2991 RMK A01 T03650146  RH  028%=      5-min Rain = 0
KPVS 182005Z 19015G22KT 37/15 A2991 RMK A01 T03670145  RH  027%=      5-min Rain = 0
KPVS 182010Z 18014G21KT 37/14 A2991 RMK A01 T03670142  RH  027%=      5-min Rain = 0
KPVS 182015Z 20015G23KT 37/14 A2991 RMK A01 T03660137  RH  026%=      5-min Rain = 0
KPVS 182020Z 20013G18KT 37/14 A2991 RMK A01 T03680135  RH  025%=      5-min Rain = 0
KPVS 182025Z 18014G20KT 37/14 A2991 RMK A01 T03700140  RH  026%=      5-min Rain = 0
KPVS 182030Z 18014G20KT 37/14 A2991 RMK A01 T03700139  RH  026%=      5-min Rain = 0
KPVS 182035Z 18015G22KT 37/14 A299 RMK A01 T03680139  RH  026%=      5-min Rain = 0
KPVS 182040Z 19014G21KT 37/14 A299 RMK A01 T03710141  RH  026%=      5-min Rain = 0
KPVS 182045Z 18015G21KT 37/14 A299 RMK A01 T03700141  RH  026%=      5-min Rain = 0
KPVS 182050Z 18013G21KT 37/14 A299 RMK A01 T03720142  RH  026%=      5-min Rain = 0
KPVS 182055Z 18015G23KT 37/14 A299 RMK A01 T03740141  RH  026%=      5-min Rain = 0
KPVS 182100Z 18015G21KT 37/14 A299 RMK A01 T03730139  RH  025%=      5-min Rain = 0
KPVS 182105Z 19014G19KT 37/14 A299 RMK A01 T03710137  RH  025%=      5-min Rain = 0
KPVS 182110Z 18016G23KT 37/14 A2989 RMK A01 T03700137  RH  025%=      5-min Rain = 0
KPVS 182115Z 18016G24KT 37/14 A2989 RMK A01 T03730138  RH  025%=      5-min Rain = 0
KPVS 182120Z 18013G19KT 37/14 A2989 RMK A01 T03730138  RH  025%=      5-min Rain = 0
KPVS 182125Z 20015G21KT 37/14 A2989 RMK A01 T03720137  RH  025%=      5-min Rain = 0
KPVS 182130Z 19014G22KT 37/14 A2989 RMK A01 T03730136  RH  025%=      5-min Rain = 0
KPVS 182135Z 18013G18KT 37/13 A2989 RMK A01 T03720133  RH  025%=      5-min Rain = 0
KPVS 182140Z 18015G20KT 37/14 A2988 RMK A01 T03740135  RH  025%=      5-min Rain = 0
KPVS 182145Z 19014G21KT 38/14 A2988 RMK A01 T03770136  RH  024%=      5-min Rain = 0
KPVS 182150Z 19014G19KT 37/13 A2988 RMK A01 T03730131  RH  024%=      5-min Rain = 0
KPVS 182155Z 18014G23KT 38/14 A2988 RMK A01 T03750135  RH  024%=      5-min Rain = 0
KPVS 182200Z 19016G23KT 37/13 A2988 RMK A01 T03730130  RH  024%=      5-min Rain = 0
KPVS 182205Z 19013G18KT 37/13 A2988 RMK A01 T03740132  RH  024%=      5-min Rain = 0
KPVS 182210Z 17016G22KT 37/13 A2988 RMK A01 T03740130  RH  024%=      5-min Rain = 0
KPVS 182215Z 19016G21KT 37/13 A2988 RMK A01 T03740130  RH  024%=      5-min Rain = 0
KPVS 182220Z 19015G22KT 37/13 A2988 RMK A01 T03730133  RH  024%=      5-min Rain = 0
KPVS 182225Z 19015G20KT 37/13 A2988 RMK A01 T03730131  RH  024%=      5-min Rain = 0
KPVS 182230Z 18014G19KT 37/13 A2987 RMK A01 T03730134  RH  025%=      5-min Rain = 0
KPVS 182235Z 19013KT 37/13 A2987 RMK A01 T03730134  RH  025%=      5-min Rain = 0
KPVS 182240Z 19014G20KT 37/13 A2987 RMK A01 T03740134  RH  024%=      5-min Rain = 0
KPVS 182245Z 18012G20KT 37/13 A2987 RMK A01 T03740133  RH  024%=      5-min Rain = 0
KPVS 182250Z 18015G21KT 37/13 A2987 RMK A01 T03730133  RH  024%=      5-min Rain = 0
KPVS 182255Z 17015G21KT 37/14 A2986 RMK A01 T03720136  RH  025%=      5-min Rain = 0
KPVS 182300Z 17015G22KT 37/14 A2986 RMK A01 T03710136  RH  025%=      5-min Rain = 0
KPVS 182305Z 18013G20KT 37/14 A2986 RMK A01 T03720135  RH  025%=      5-min Rain = 0
KPVS 182310Z 19015G20KT 37/13 A2986 RMK A01 T03710134  RH  025%=      5-min Rain = 0
KPVS 182315Z 18014G19KT 37/13 A2986 RMK A01 T03690134  RH  025%=      5-min Rain = 0
KPVS 182320Z 18013G20KT 37/14 A2986 RMK A01 T03690138  RH  026%=      5-min Rain = 0
KPVS 182325Z 17017G25KT 37/14 A2986 RMK A01 T03680138  RH  026%=      5-min Rain = 0
KPVS 182330Z 18016G23KT 37/14 A2986 RMK A01 T03660140  RH  026%=      5-min Rain = 0
KPVS 182335Z 18015G22KT 37/14 A2986 RMK A01 T03650140  RH  027%=      5-min Rain = 0
KPVS 182340Z 18015G22KT 36/14 A2985 RMK A01 T03640141  RH  027%=      5-min Rain = 0
KPVS 182345Z 19015G21KT 36/14 A2985 RMK A01 T03640141  RH  027%=      5-min Rain = 0
KPVS 182350Z 18015G24KT 36/14 A2985 RMK A01 T03630141  RH  027%=      5-min Rain = 0
KPVS 182355Z 17016G23KT 36/14 A2985 RMK A01 T03620142  RH  027%=      5-min Rain = 0
KPVS 190000Z 18016G24KT 36/14 A2985 RMK A01 T03610142  RH  028%=      5-min Rain = 0
KPVS 190005Z 18015G23KT 36/14 A2985 RMK A01 T03600142  RH  028%=      5-min Rain = 0
KPVS 190010Z 17015G22KT 36/14 A2985 RMK A01 T03590144  RH  028%=      5-min Rain = 0
KPVS 190015Z 18014G20KT 36/15 A2985 RMK A01 T03580146  RH  029%=      5-min Rain = 0
KPVS 190020Z 18013G21KT 36/15 A2985 RMK A01 T03570147  RH  029%=      5-min Rain = 0
KPVS 190025Z 18015G21KT 36/15 A2985 RMK A01 T03550148  RH  030%=      5-min Rain = 0
KPVS 190030Z 18015G22KT 35/15 A2985 RMK A01 T03540147  RH  030%=      5-min Rain = 0
KPVS 190035Z 18014G22KT 35/15 A2985 RMK A01 T03520148  RH  030%=      5-min Rain = 0
KPVS 190040Z 18015G21KT 35/15 A2985 RMK A01 T03510147  RH  030%=      5-min Rain = 0
KPVS 190045Z 18013G19KT 35/15 A2986 RMK A01 T03500147  RH  030%=      5-min Rain = 0
KPVS 190050Z 17015G20KT 35/15 A2986 RMK A01 T03480147  RH  031%=      5-min Rain = 0
KPVS 190055Z 17013G19KT 35/15 A2986 RMK A01 T03470147  RH  031%=      5-min Rain = 0
KPVS 190100Z 18013G19KT 35/15 A2986 RMK A01 T03460146  RH  031%=      5-min Rain = 0
KPVS 190105Z 17014KT 34/15 A2986 RMK A01 T03440145  RH  031%=      5-min Rain = 0
KPVS 190110Z 17011G17KT 34/14 A2986 RMK A01 T03430144  RH  031%=      5-min Rain = 0
KPVS 190115Z 17014G20KT 34/14 A2986 RMK A01 T03410143  RH  031%=      5-min Rain = 0
KPVS 190120Z 17012KT 34/14 A2986 RMK A01 T03400143  RH  031%=      5-min Rain = 0
KPVS 190125Z 17013G19KT 34/14 A2986 RMK A01 T03380142  RH  031%=      5-min Rain = 0
KPVS 190130Z 17011G17KT 34/14 A2986 RMK A01 T03360143  RH  032%=      5-min Rain = 0
KPVS 190135Z 17011KT 34/14 A2987 RMK A01 T03350142  RH  032%=      5-min Rain = 0
KPVS 190140Z 17011G17KT 33/14 A2987 RMK A01 T03330142  RH  032%=      5-min Rain = 0
KPVS 190145Z 17010G15KT 33/14 A2987 RMK A01 T03310142  RH  033%=      5-min Rain = 0
KPVS 190150Z 16010KT 33/14 A2987 RMK A01 T03290142  RH  033%=      5-min Rain = 0
KPVS 190155Z 16009G14KT 33/14 A2987 RMK A01 T03270142  RH  033%=      5-min Rain = 0
KPVS 190200Z 16009G14KT 33/14 A2987 RMK A01 T03250143  RH  034%=      5-min Rain = 0
KPVS 190205Z 16009G15KT 32/14 A2988 RMK A01 T03240142  RH  034%=      5-min Rain = 0
KPVS 190210Z 16009G15KT 32/14 A2988 RMK A01 T03220142  RH  034%=      5-min Rain = 0
KPVS 190215Z 17009KT 32/14 A2988 RMK A01 T03200142  RH  035%=      5-min Rain = 0
KPVS 190220Z 16010KT 32/14 A2988 RMK A01 T03190141  RH  035%=      5-min Rain = 0
KPVS 190225Z 17009G14KT 32/14 A2988 RMK A01 T03190141  RH  035%=      5-min Rain = 0
KPVS 190230Z 16010KT 32/14 A2988 RMK A01 T03180140  RH  035%=      5-min Rain = 0
KPVS 190235Z 17010KT 32/14 A2988 RMK A01 T03170140  RH  035%=      5-min Rain = 0
KPVS 190240Z 17010KT 32/14 A2988 RMK A01 T03150140  RH  035%=      5-min Rain = 0
KPVS 190245Z 17009KT 31/14 A2988 RMK A01 T03130140  RH  036%=      5-min Rain = 0
KPVS 190250Z 17009KT 31/14 A2988 RMK A01 T03120140  RH  036%=      5-min Rain = 0
KPVS 190255Z 17011G16KT 31/14 A2988 RMK A01 T03110140  RH  036%=      5-min Rain = 0
KPVS 190300Z 17010KT 31/14 A2988 RMK A01 T03110140  RH  036%=      5-min Rain = 0
KPVS 190305Z 17010KT 31/14 A2988 RMK A01 T03090141  RH  037%=      5-min Rain = 0
KPVS 190310Z 17008KT 31/14 A2989 RMK A01 T03080141  RH  037%=      5-min Rain = 0
KPVS 190315Z 17009KT 31/14 A2989 RMK A01 T03070142  RH  037%=      5-min Rain = 0
KPVS 190320Z 17009KT 31/14 A2989 RMK A01 T03060142  RH  037%=      5-min Rain = 0
KPVS 190325Z 17009G14KT 31/14 A2989 RMK A01 T03050142  RH  038%=      5-min Rain = 0
KPVS 190330Z 17009G14KT 30/14 A2989 RMK A01 T03040142  RH  038%=      5-min Rain = 0
KPVS 190335Z 17009KT 30/14 A299 RMK A01 T03020142  RH  038%=      5-min Rain = 0
KPVS 190340Z 17009KT 30/14 A299 RMK A01 T03020142  RH  039%=      5-min Rain = 0
KPVS 190345Z 17009KT 30/14 A299 RMK A01 T03010142  RH  039%=      5-min Rain = 0
KPVS 190350Z 17009KT 30/14 A299 RMK A01 T03000142  RH  039%=      5-min Rain = 0
KPVS 190355Z 17009KT 30/14 A299 RMK A01 T02990142  RH  039%=      5-min Rain = 0
KPVS 190400Z 17009KT 30/14 A299 RMK A01 T02980142  RH  039%=      5-min Rain = 0
KPVS 190405Z 17009KT 30/14 A299 RMK A01 T02960143  RH  040%=      5-min Rain = 0
KPVS 190410Z 17009KT 30/14 A2991 RMK A01 T02950143  RH  040%=      5-min Rain = 0
KPVS 190415Z 17009KT 29/14 A2991 RMK A01 T02940143  RH  040%=      5-min Rain = 0
KPVS 190420Z 17009KT 29/14 A2991 RMK A01 T02940143  RH  041%=      5-min Rain = 0
KPVS 190425Z 17009G14KT 29/14 A2991 RMK A01 T02930143  RH  041%=      5-min Rain = 0
KPVS 190430Z 17010KT 29/14 A2991 RMK A01 T02930143  RH  041%=      5-min Rain = 0
KPVS 190435Z 17009G15KT 29/14 A2992 RMK A01 T02910144  RH  041%=      5-min Rain = 0
KPVS 190440Z 17009G14KT 29/14 A2992 RMK A01 T02910143  RH  041%=      5-min Rain = 0
KPVS 190445Z 17008KT 29/14 A2992 RMK A01 T02890144  RH  042%=      5-min Rain = 0
KPVS 190450Z 17007KT 29/14 A2992 RMK A01 T02870144  RH  043%=      5-min Rain = 0
KPVS 190455Z 17008KT 29/15 A2992 RMK A01 T02850145  RH  043%=      5-min Rain = 0

Page generated in 0.022 seconds.